Time;durP1;ratioP1;P1;durP2;ratioP2;P2;SDS_P1;SDS_P2;PMS_P1;PMS_P2;Temp;Humidity;BMP_temperature;BMP_pressure;BME280_temperature;BME280_humidity;BME280_pressure;Samples;Min_cycle;Max_cycle;Signal;HPM_P1;HPM_P2
2021/07/04 00:00:26;;;;;;;7.25;5.35;;;21.10;99.90;;;;;;2089575;28;20102;-68
2021/07/04 00:01:27;;;;;;;8.35;5.93;;;21.00;99.90;;;;;;2090073;28;20436;-68
2021/07/04 00:02:27;;;;;;;6.30;5.78;;;21.00;99.90;;;;;;2089859;28;20021;-68
2021/07/04 00:03:28;;;;;;;6.07;5.47;;;21.00;99.90;;;;;;2090083;28;20056;-68
2021/07/04 00:04:28;;;;;;;6.30;5.63;;;21.00;99.90;;;;;;2098028;28;20027;-68
2021/07/04 00:05:46;;;;;;;5.72;5.22;;;21.00;99.90;;;;;;2089712;28;20037;-68
2021/07/04 00:06:46;;;;;;;7.13;6.07;;;21.00;99.90;;;;;;2089729;28;20029;-68
2021/07/04 00:07:47;;;;;;;8.85;6.60;;;21.00;99.90;;;;;;2090254;28;20025;-68
2021/07/04 00:08:48;;;;;;;6.22;5.63;;;21.00;99.90;;;;;;2090049;28;20451;-68
2021/07/04 00:09:48;;;;;;;6.80;6.10;;;21.00;99.90;;;;;;2090469;28;20533;-68
2021/07/04 00:11:02;;;;;;;6.90;6.25;;;21.00;99.90;;;;;;2090094;28;20029;-68
2021/07/04 00:12:04;;;;;;;5.95;5.45;;;21.00;99.90;;;;;;2089654;28;20036;-68
2021/07/04 00:13:04;;;;;;;6.32;5.72;;;21.00;99.90;;;;;;2097471;28;20522;-68
2021/07/04 00:14:05;;;;;;;7.63;6.38;;;21.00;99.90;;;;;;2097915;28;20429;-68
2021/07/04 00:15:09;;;;;;;6.65;6.05;;;21.00;99.90;;;;;;2090064;28;20427;-68
2021/07/04 00:16:10;;;;;;;7.05;6.35;;;21.00;99.90;;;;;;2089850;28;20017;-68
2021/07/04 00:17:10;;;;;;;6.63;6.03;;;21.00;99.90;;;;;;2090278;28;20017;-68
2021/07/04 00:18:15;;;;;;;6.40;5.72;;;20.90;99.90;;;;;;2090208;28;20025;-68
2021/07/04 00:19:16;;;;;;;6.72;6.07;;;20.90;99.90;;;;;;2090069;28;20071;-68
2021/07/04 00:20:20;;;;;;;7.35;6.65;;;20.90;99.90;;;;;;2090054;28;20029;-68
2021/07/04 00:21:21;;;;;;;6.75;6.15;;;20.90;99.90;;;;;;2089867;28;20482;-68
2021/07/04 00:22:21;;;;;;;10.00;7.15;;;20.90;99.90;;;;;;2089842;28;20376;-68
2021/07/04 00:23:22;;;;;;;6.88;6.20;;;20.90;99.90;;;;;;2089089;28;20029;-68
2021/07/04 00:24:23;;;;;;;7.07;6.38;;;20.80;99.90;;;;;;2089525;28;20550;-68
2021/07/04 00:25:25;;;;;;;7.20;6.60;;;20.80;99.90;;;;;;2089963;28;20029;-68
2021/07/04 00:26:26;;;;;;;7.38;6.70;;;20.80;99.90;;;;;;2090034;28;20112;-68
2021/07/04 00:27:26;;;;;;;6.72;5.80;;;20.80;99.90;;;;;;2089888;28;20063;-68
2021/07/04 00:28:27;;;;;;;6.80;6.15;;;20.80;99.90;;;;;;2090096;28;20100;-68
2021/07/04 00:29:27;;;;;;;7.45;6.53;;;20.80;99.90;;;;;;2090071;28;20376;-68
2021/07/04 00:30:28;;;;;;;6.97;6.30;;;20.80;99.90;;;;;;2090208;28;20025;-68
2021/07/04 00:31:29;;;;;;;6.30;5.70;;;20.80;99.90;;;;;;2089276;28;20025;-68
2021/07/04 00:32:30;;;;;;;7.18;6.47;;;20.80;99.90;;;;;;2090011;28;20017;-68
2021/07/04 00:33:30;;;;;;;6.65;6.10;;;20.80;99.90;;;;;;2089791;28;20140;-68
2021/07/04 00:34:31;;;;;;;6.47;5.93;;;20.80;99.90;;;;;;2089988;28;20590;-68
2021/07/04 00:35:32;;;;;;;6.60;6.00;;;20.80;99.90;;;;;;2089910;28;20416;-68
2021/07/04 00:36:33;;;;;;;8.13;6.20;;;20.80;99.90;;;;;;2090060;28;20048;-68
2021/07/04 00:37:33;;;;;;;7.00;6.38;;;20.80;99.90;;;;;;2089941;28;20017;-68
2021/07/04 00:38:35;;;;;;;6.93;6.18;;;20.80;99.90;;;;;;2089764;28;20475;-68
2021/07/04 00:39:35;;;;;;;10.35;5.95;;;20.80;99.90;;;;;;2089793;28;20025;-68
2021/07/04 00:40:36;;;;;;;6.28;5.68;;;20.80;99.90;;;;;;2090112;28;20032;-68
2021/07/04 00:41:37;;;;;;;7.32;5.72;;;20.80;99.90;;;;;;2089105;28;20024;-68
2021/07/04 00:42:38;;;;;;;6.82;6.22;;;20.80;99.90;;;;;;2089952;28;20024;-68
2021/07/04 00:43:39;;;;;;;7.30;6.60;;;20.80;99.90;;;;;;2089849;28;20039;-68
2021/07/04 00:44:40;;;;;;;7.20;6.50;;;20.80;99.90;;;;;;2090059;28;20074;-68
2021/07/04 00:45:41;;;;;;;7.47;6.82;;;20.80;99.90;;;;;;2089751;28;20376;-68
2021/07/04 00:46:41;;;;;;;6.70;6.13;;;20.80;99.90;;;;;;2089755;28;20051;-68
2021/07/04 00:47:43;;;;;;;6.10;5.60;;;20.80;99.90;;;;;;2089728;28;20096;-68
2021/07/04 00:48:43;;;;;;;7.07;6.38;;;20.80;99.90;;;;;;2090065;28;20114;-68
2021/07/04 00:49:44;;;;;;;7.13;6.50;;;20.80;99.90;;;;;;2089646;28;20473;-68
2021/07/04 00:50:45;;;;;;;11.95;7.53;;;20.80;99.90;;;;;;2089932;28;20498;-68
2021/07/04 00:51:46;;;;;;;7.57;6.88;;;20.80;99.90;;;;;;2089295;28;20027;-68
2021/07/04 00:52:46;;;;;;;9.88;7.15;;;20.80;99.90;;;;;;2089790;28;20043;-68
2021/07/04 00:53:47;;;;;;;7.63;6.80;;;20.80;99.90;;;;;;2089653;28;20087;-68
2021/07/04 00:54:48;;;;;;;8.95;7.32;;;20.80;99.90;;;;;;2089071;28;20017;-68
2021/07/04 00:55:49;;;;;;;7.40;6.68;;;20.80;99.90;;;;;;2089117;28;20021;-68
2021/07/04 00:56:49;;;;;;;7.80;7.10;;;20.80;99.90;;;;;;2089793;28;20017;-68
2021/07/04 00:57:50;;;;;;;7.13;6.50;;;20.80;99.90;;;;;;2089867;28;20115;-68
2021/07/04 00:58:51;;;;;;;7.85;7.05;;;20.80;99.90;;;;;;2089755;28;20100;-68
2021/07/04 00:59:51;;;;;;;7.38;6.40;;;20.80;99.90;;;;;;2089949;28;20025;-68
2021/07/04 01:00:52;;;;;;;8.10;7.35;;;20.80;99.90;;;;;;2089787;28;20082;-68
2021/07/04 01:01:57;;;;;;;7.45;6.78;;;20.80;99.90;;;;;;2089116;28;20017;-68
2021/07/04 01:02:58;;;;;;;8.07;7.38;;;20.70;99.90;;;;;;2089519;28;20029;-68
2021/07/04 01:03:59;;;;;;;8.02;7.22;;;20.80;99.90;;;;;;2089789;28;20067;-68
2021/07/04 01:04:59;;;;;;;7.72;7.00;;;20.70;99.90;;;;;;2089404;28;20029;-68
2021/07/04 01:06:00;;;;;;;8.32;7.63;;;20.70;99.90;;;;;;2089726;28;20384;-68
2021/07/04 01:07:01;;;;;;;6.82;6.20;;;20.70;99.90;;;;;;2096962;28;20036;-68
2021/07/04 01:08:05;;;;;;;7.55;6.85;;;20.80;99.90;;;;;;2089405;28;20461;-68
2021/07/04 01:09:06;;;;;;;8.15;7.35;;;20.80;99.90;;;;;;2096117;28;20032;-68
2021/07/04 01:10:09;;;;;;;7.40;6.63;;;20.70;99.90;;;;;;2089260;28;20032;-68
2021/07/04 01:11:09;;;;;;;6.53;5.90;;;20.70;99.90;;;;;;2089544;28;20125;-68
2021/07/04 01:12:10;;;;;;;7.22;6.63;;;20.70;99.90;;;;;;2088570;28;20032;-68
2021/07/04 01:13:12;;;;;;;7.70;7.00;;;20.70;99.90;;;;;;2089542;28;20443;-68
2021/07/04 01:14:13;;;;;;;7.47;6.85;;;20.70;99.90;;;;;;2089591;28;20107;-68
2021/07/04 01:15:17;;;;;;;7.53;6.75;;;20.70;99.90;;;;;;2089696;28;20032;-68
2021/07/04 01:16:18;;;;;;;8.30;7.50;;;20.70;99.90;;;;;;2089615;28;20028;-68
2021/07/04 01:17:18;;;;;;;7.13;6.43;;;20.70;99.90;;;;;;2089799;28;20025;-68
2021/07/04 01:18:19;;;;;;;9.90;7.88;;;20.70;99.90;;;;;;2089464;28;20120;-68
2021/07/04 01:19:22;;;;;;;8.95;8.00;;;20.70;99.90;;;;;;2089620;28;20032;-68
2021/07/04 01:20:24;;;;;;;7.43;6.68;;;20.70;99.90;;;;;;2089567;28;20121;-68
2021/07/04 01:21:27;;;;;;;7.63;6.68;;;20.70;99.90;;;;;;2089214;28;20071;-68
2021/07/04 01:22:30;;;;;;;7.88;7.07;;;20.70;99.90;;;;;;2089281;28;20090;-68
2021/07/04 01:23:31;;;;;;;7.15;6.45;;;20.70;99.90;;;;;;2089671;28;20038;-68
2021/07/04 01:24:32;;;;;;;8.40;7.60;;;20.70;99.90;;;;;;2089540;28;20060;-68
2021/07/04 01:25:35;;;;;;;7.78;7.03;;;20.70;99.90;;;;;;2089539;28;20107;-68
2021/07/04 01:26:36;;;;;;;7.35;6.65;;;20.70;99.90;;;;;;2089514;28;20033;-68
2021/07/04 01:27:37;;;;;;;6.55;6.05;;;20.70;99.90;;;;;;2089693;28;20029;-68
2021/07/04 01:28:38;;;;;;;8.02;6.88;;;20.70;99.90;;;;;;2089342;28;20028;-68
2021/07/04 01:29:38;;;;;;;8.20;7.47;;;20.70;99.90;;;;;;2089704;28;20025;-68
2021/07/04 01:30:41;;;;;;;6.85;6.32;;;20.70;99.90;;;;;;2089314;28;20032;-68
2021/07/04 01:31:41;;;;;;;7.32;6.38;;;20.70;99.90;;;;;;2089227;28;20120;-68
2021/07/04 01:32:42;;;;;;;8.70;7.43;;;20.70;99.90;;;;;;2089374;28;20024;-68
2021/07/04 01:33:43;;;;;;;8.18;7.47;;;20.70;99.90;;;;;;2089497;28;20025;-68
2021/07/04 01:34:43;;;;;;;8.93;8.02;;;20.70;99.90;;;;;;2089368;28;20090;-68
2021/07/04 01:35:44;;;;;;;9.02;8.27;;;20.70;99.90;;;;;;2089584;28;20017;-68
2021/07/04 01:36:44;;;;;;;8.60;7.80;;;20.60;99.90;;;;;;2089389;28;20037;-68
2021/07/04 01:37:45;;;;;;;8.80;8.00;;;20.60;99.90;;;;;;2089577;28;20048;-68
2021/07/04 01:38:45;;;;;;;8.63;7.93;;;20.60;99.90;;;;;;2089441;28;20021;-68
2021/07/04 01:39:46;;;;;;;7.68;6.95;;;20.60;99.90;;;;;;2089382;28;20113;-68
2021/07/04 01:40:47;;;;;;;9.48;8.57;;;20.70;99.90;;;;;;2089231;28;20044;-68
2021/07/04 01:41:48;;;;;;;9.32;8.43;;;20.70;99.90;;;;;;2088855;28;20028;-68
2021/07/04 01:42:50;;;;;;;8.52;7.72;;;20.70;99.90;;;;;;2089503;28;20060;-68
2021/07/04 01:43:52;;;;;;;8.82;7.93;;;20.60;99.90;;;;;;2089337;28;20020;-68
2021/07/04 01:44:53;;;;;;;8.68;7.80;;;20.60;99.90;;;;;;2089568;28;20404;-68
2021/07/04 01:45:53;;;;;;;9.73;8.73;;;20.70;99.90;;;;;;2089461;28;20052;-68
2021/07/04 01:46:54;;;;;;;9.40;8.60;;;20.60;99.90;;;;;;2089539;28;20119;-68
2021/07/04 01:47:55;;;;;;;8.95;8.15;;;20.60;99.90;;;;;;2089198;28;20021;-68
2021/07/04 01:48:56;;;;;;;8.93;8.23;;;20.60;99.90;;;;;;2089281;28;20049;-68
2021/07/04 01:49:56;;;;;;;11.43;8.75;;;20.60;99.90;;;;;;2089574;28;20032;-68
2021/07/04 01:50:57;;;;;;;8.93;8.15;;;20.60;99.90;;;;;;2089331;28;20031;-68
2021/07/04 01:51:57;;;;;;;9.10;8.23;;;20.60;99.90;;;;;;2088602;28;20025;-68
2021/07/04 01:52:58;;;;;;;11.70;8.85;;;20.60;99.90;;;;;;2097062;28;20056;-68
2021/07/04 01:53:58;;;;;;;9.93;9.02;;;20.60;99.90;;;;;;2096783;28;20079;-68
2021/07/04 01:54:59;;;;;;;10.57;8.77;;;20.60;99.90;;;;;;2096868;28;20020;-68
2021/07/04 01:56:04;;;;;;;9.48;8.57;;;20.50;99.90;;;;;;2091021;28;20029;-68
2021/07/04 01:57:13;;;;;;;8.90;8.10;;;20.50;99.90;;;;;;2089555;28;20025;-68
2021/07/04 01:58:14;;;;;;;8.95;8.10;;;20.50;99.90;;;;;;2089227;28;20090;-68
2021/07/04 01:59:15;;;;;;;9.48;8.68;;;20.50;99.90;;;;;;2089325;28;20028;-68
2021/07/04 02:00:17;;;;;;;9.93;8.93;;;20.50;99.90;;;;;;2088437;28;20552;-68
2021/07/04 02:01:18;;;;;;;8.88;8.10;;;20.50;99.90;;;;;;2088676;28;20416;-68
2021/07/04 02:02:19;;;;;;;9.55;8.65;;;20.50;99.90;;;;;;2088726;28;20055;-68
2021/07/04 02:03:19;;;;;;;8.82;8.00;;;20.50;99.90;;;;;;2089445;28;20044;-68
2021/07/04 02:04:20;;;;;;;8.48;7.68;;;20.50;99.90;;;;;;2089199;28;20100;-68
2021/07/04 02:05:21;;;;;;;7.85;7.15;;;20.50;99.90;;;;;;2089385;28;20033;-68
2021/07/04 02:06:22;;;;;;;8.73;8.02;;;20.50;99.90;;;;;;2089209;28;20032;-68
2021/07/04 02:07:22;;;;;;;13.88;8.02;;;20.50;99.90;;;;;;2089267;28;20032;-68
2021/07/04 02:08:23;;;;;;;8.63;7.78;;;20.50;99.90;;;;;;2089024;28;20021;-68
2021/07/04 02:09:24;;;;;;;8.38;7.57;;;20.50;99.90;;;;;;2089310;28;20025;-68
2021/07/04 02:10:27;;;;;;;8.60;7.65;;;20.50;99.90;;;;;;2089066;28;20029;-68
2021/07/04 02:11:28;;;;;;;8.00;7.05;;;20.50;99.90;;;;;;2088889;28;20082;-68
2021/07/04 02:12:28;;;;;;;8.93;8.13;;;20.50;99.90;;;;;;2089073;28;20040;-68
2021/07/04 02:13:29;;;;;;;9.52;7.88;;;20.50;99.90;;;;;;2089312;28;20036;-68
2021/07/04 02:14:30;;;;;;;9.30;7.00;;;20.50;99.90;;;;;;2088928;28;20029;-68
2021/07/04 02:15:33;;;;;;;8.00;7.30;;;20.50;99.90;;;;;;2089573;28;20017;-68
2021/07/04 02:16:33;;;;;;;8.32;7.63;;;20.50;99.90;;;;;;2089071;28;20028;-68
2021/07/04 02:17:34;;;;;;;8.38;7.50;;;20.50;99.90;;;;;;2089211;28;20028;-68
2021/07/04 02:18:35;;;;;;;6.95;6.35;;;20.50;99.90;;;;;;2089113;28;20547;-68
2021/07/04 02:19:37;;;;;;;8.73;7.93;;;20.50;99.90;;;;;;2089178;28;20024;-68
2021/07/04 02:20:40;;;;;;;9.02;8.23;;;20.50;99.90;;;;;;2089166;28;20048;-68
2021/07/04 02:21:40;;;;;;;12.43;8.90;;;20.50;99.90;;;;;;2096287;28;21127;-68
2021/07/04 02:22:41;;;;;;;9.23;8.32;;;20.50;99.90;;;;;;2096637;28;20061;-68
2021/07/04 02:23:41;;;;;;;9.75;8.10;;;20.50;99.90;;;;;;2089134;28;20087;-68
2021/07/04 02:24:42;;;;;;;8.43;7.63;;;20.50;99.90;;;;;;2089117;28;20029;-68
2021/07/04 02:25:44;;;;;;;9.00;8.20;;;20.50;99.90;;;;;;2089305;28;20021;-68
2021/07/04 02:26:45;;;;;;;8.73;7.78;;;20.50;99.90;;;;;;2088830;28;20167;-68
2021/07/04 02:27:45;;;;;;;9.85;8.57;;;20.50;99.90;;;;;;2088559;28;20025;-68
2021/07/04 02:28:46;;;;;;;10.18;8.48;;;20.50;99.90;;;;;;2088663;28;20470;-68
2021/07/04 02:29:46;;;;;;;8.52;7.72;;;20.50;99.90;;;;;;2088987;28;20028;-68
2021/07/04 02:30:49;;;;;;;8.80;7.70;;;20.50;99.90;;;;;;2089287;28;20029;-68
2021/07/04 02:31:49;;;;;;;8.73;7.82;;;20.50;99.90;;;;;;2088660;28;20028;-68
2021/07/04 02:32:50;;;;;;;8.55;7.60;;;20.50;99.90;;;;;;2089364;28;20077;-68
2021/07/04 02:33:51;;;;;;;8.45;7.68;;;20.50;99.90;;;;;;2088983;28;20472;-68
2021/07/04 02:34:51;;;;;;;8.00;7.20;;;20.40;99.90;;;;;;2096821;28;20086;-68
2021/07/04 02:35:58;;;;;;;7.35;6.75;;;20.50;99.90;;;;;;2096747;28;20476;-68
2021/07/04 02:36:59;;;;;;;7.32;6.72;;;20.40;99.90;;;;;;2089269;28;20025;-68
2021/07/04 02:38:00;;;;;;;7.43;6.82;;;20.40;99.90;;;;;;2088638;28;20017;-68
2021/07/04 02:39:03;;;;;;;8.40;7.20;;;20.40;99.90;;;;;;2089168;28;20029;-68
2021/07/04 02:40:04;;;;;;;7.07;6.47;;;20.40;99.90;;;;;;2096990;28;20348;-68
2021/07/04 02:41:05;;;;;;;9.23;7.20;;;20.40;99.90;;;;;;2096851;28;20075;-68
2021/07/04 02:42:06;;;;;;;7.80;7.13;;;20.40;99.90;;;;;;2088495;28;20104;-68
2021/07/04 02:43:08;;;;;;;7.53;6.82;;;20.40;99.90;;;;;;2089190;28;20386;-68
2021/07/04 02:44:09;;;;;;;8.98;8.15;;;20.40;99.90;;;;;;2089022;28;20032;-68
2021/07/04 02:45:10;;;;;;;8.70;7.90;;;20.40;99.90;;;;;;2089418;28;20078;-68
2021/07/04 02:46:11;;;;;;;8.70;7.97;;;20.40;99.90;;;;;;2089026;28;20079;-68
2021/07/04 02:47:12;;;;;;;8.00;7.30;;;20.40;99.90;;;;;;2089159;28;20029;-68
2021/07/04 02:48:13;;;;;;;9.18;7.95;;;20.40;99.90;;;;;;2089066;28;20033;-68
2021/07/04 02:49:14;;;;;;;8.43;7.68;;;20.40;99.90;;;;;;2088954;28;20033;-68
2021/07/04 02:50:14;;;;;;;8.77;7.97;;;20.40;99.90;;;;;;2096726;28;20029;-68
2021/07/04 02:51:15;;;;;;;9.20;8.27;;;20.40;99.90;;;;;;2096858;28;20512;-68
2021/07/04 02:52:16;;;;;;;9.65;8.57;;;20.40;99.90;;;;;;2088189;28;20029;-68
2021/07/04 02:53:16;;;;;;;9.35;8.45;;;20.40;99.90;;;;;;2089160;28;20430;-68
2021/07/04 02:54:17;;;;;;;10.98;8.20;;;20.40;99.90;;;;;;2088960;28;20029;-68
2021/07/04 02:55:19;;;;;;;8.93;8.13;;;20.40;99.90;;;;;;2089254;28;20021;-68
2021/07/04 02:56:19;;;;;;;9.85;8.82;;;20.30;99.90;;;;;;2080792;28;20076;-68
2021/07/04 02:57:20;;;;;;;8.80;8.10;;;20.40;99.90;;;;;;2085270;28;20025;-68
2021/07/04 02:58:21;;;;;;;9.07;8.18;;;20.40;99.90;;;;;;2096585;28;20086;-68
2021/07/04 02:59:21;;;;;;;9.20;8.40;;;20.40;99.90;;;;;;2096853;28;20032;-68
2021/07/04 03:00:24;;;;;;;10.90;8.65;;;20.40;99.90;;;;;;2088809;28;20064;-68
2021/07/04 03:01:25;;;;;;;8.48;7.70;;;20.40;99.90;;;;;;2088888;28;20024;-68
2021/07/04 03:02:26;;;;;;;9.65;8.65;;;20.30;99.90;;;;;;2088897;28;20052;-68
2021/07/04 03:03:27;;;;;;;10.13;9.15;;;20.40;99.90;;;;;;2088961;28;20021;-68
2021/07/04 03:04:27;;;;;;;7.47;6.85;;;20.30;99.90;;;;;;2088979;28;20384;-68
2021/07/04 03:05:28;;;;;;;6.93;6.22;;;20.40;99.90;;;;;;2088852;28;20028;-68
2021/07/04 03:06:28;;;;;;;8.63;7.80;;;20.30;99.90;;;;;;2089075;28;20025;-68
2021/07/04 03:07:29;;;;;;;9.10;8.20;;;20.30;99.90;;;;;;2089033;28;20049;-68
2021/07/04 03:08:30;;;;;;;8.68;7.85;;;20.30;99.90;;;;;;2088923;28;20086;-68
2021/07/04 03:09:30;;;;;;;8.73;8.02;;;20.30;99.90;;;;;;2089124;28;20025;-68
2021/07/04 03:10:31;;;;;;;9.32;8.10;;;20.30;99.90;;;;;;2088771;28;20424;-68
2021/07/04 03:11:31;;;;;;;9.20;8.30;;;20.30;99.90;;;;;;2088501;28;20037;-68
2021/07/04 03:12:32;;;;;;;7.93;7.22;;;20.30;99.90;;;;;;2089115;28;20030;-68
2021/07/04 03:13:33;;;;;;;8.40;7.72;;;20.30;99.90;;;;;;2088860;28;20076;-68
2021/07/04 03:14:33;;;;;;;7.60;7.00;;;20.30;99.90;;;;;;2089197;28;20017;-68
2021/07/04 03:15:34;;;;;;;8.40;7.70;;;20.30;99.90;;;;;;2088673;28;20074;-68
2021/07/04 03:16:34;;;;;;;7.63;6.93;;;20.30;99.90;;;;;;2092145;28;20494;-68
2021/07/04 03:17:35;;;;;;;8.77;7.97;;;20.30;99.90;;;;;;2096570;28;20028;-68
2021/07/04 03:18:36;;;;;;;9.07;8.18;;;20.30;99.90;;;;;;2097429;28;20572;-68
2021/07/04 03:19:36;;;;;;;9.60;8.73;;;20.30;99.90;;;;;;2097091;28;20111;-68
2021/07/04 03:20:37;;;;;;;13.18;9.75;;;20.30;99.90;;;;;;2097461;28;20499;-68
2021/07/04 03:21:38;;;;;;;12.20;8.82;;;20.30;99.90;;;;;;2096407;28;20032;-68
2021/07/04 03:22:39;;;;;;;10.68;9.68;;;20.30;99.90;;;;;;2104853;28;20048;-68
2021/07/04 03:23:40;;;;;;;10.55;9.65;;;20.30;99.90;;;;;;2104623;28;20047;-68
2021/07/04 03:24:40;;;;;;;10.65;9.38;;;20.30;99.90;;;;;;2097225;28;20078;-68
2021/07/04 03:25:41;;;;;;;11.32;9.55;;;20.30;99.90;;;;;;2097365;28;20024;-68
2021/07/04 03:26:42;;;;;;;10.25;9.02;;;20.30;99.90;;;;;;2097294;28;20384;-68
2021/07/04 03:27:44;;;;;;;10.70;9.70;;;20.30;99.90;;;;;;2096998;28;20029;-68
2021/07/04 03:28:45;;;;;;;9.75;8.85;;;20.30;99.90;;;;;;2097526;28;20372;-68
2021/07/04 03:29:45;;;;;;;10.23;9.32;;;20.30;99.90;;;;;;2096773;28;20391;-68
2021/07/04 03:30:46;;;;;;;11.05;10.15;;;20.30;99.90;;;;;;2097414;28;20028;-68
2021/07/04 03:31:47;;;;;;;10.57;9.57;;;20.30;99.90;;;;;;2104104;28;20055;-68
2021/07/04 03:32:49;;;;;;;11.25;10.27;;;20.30;99.90;;;;;;2096411;28;20028;-68
2021/07/04 03:33:50;;;;;;;11.63;10.02;;;20.30;99.90;;;;;;2096665;28;20021;-68
2021/07/04 03:34:50;;;;;;;9.98;9.07;;;20.30;99.90;;;;;;2097645;28;20123;-68
2021/07/04 03:35:51;;;;;;;11.90;10.70;;;20.30;99.90;;;;;;2097581;28;20032;-68
2021/07/04 03:36:52;;;;;;;10.48;9.48;;;20.30;99.90;;;;;;2090700;28;20092;-68
2021/07/04 03:37:52;;;;;;;11.30;10.27;;;20.30;99.90;;;;;;2090229;28;20049;-68
2021/07/04 03:38:53;;;;;;;10.30;9.27;;;20.30;99.90;;;;;;2089478;28;20450;-68
2021/07/04 03:39:53;;;;;;;11.63;10.10;;;20.30;99.90;;;;;;2089645;28;20029;-68
2021/07/04 03:40:54;;;;;;;11.40;10.30;;;20.30;99.90;;;;;;2089747;28;20472;-69
2021/07/04 03:41:55;;;;;;;10.57;9.68;;;20.30;99.90;;;;;;2089145;28;20024;-68
2021/07/04 03:42:55;;;;;;;8.80;8.10;;;20.30;99.90;;;;;;2090289;28;20021;-68
2021/07/04 03:43:59;;;;;;;10.15;9.20;;;20.20;99.90;;;;;;2090288;28;20032;-68
2021/07/04 03:45:00;;;;;;;12.25;10.18;;;20.30;99.90;;;;;;2090413;28;20060;-68
2021/07/04 03:46:00;;;;;;;11.88;10.88;;;20.20;99.90;;;;;;2090360;28;20021;-68
2021/07/04 03:47:01;;;;;;;11.48;10.40;;;20.20;99.90;;;;;;2090586;28;20028;-68
2021/07/04 03:48:01;;;;;;;10.57;9.63;;;20.30;99.90;;;;;;2090258;28;20051;-68
2021/07/04 03:49:02;;;;;;;11.57;10.48;;;20.20;99.90;;;;;;2090419;28;20029;-68
2021/07/04 03:50:05;;;;;;;12.07;10.88;;;20.20;99.90;;;;;;2090337;28;20037;-68
2021/07/04 03:51:05;;;;;;;10.07;9.25;;;20.20;99.90;;;;;;2090283;28;20025;-68
2021/07/04 03:52:07;;;;;;;13.45;10.38;;;20.30;99.90;;;;;;2089734;28;20041;-68
2021/07/04 03:53:07;;;;;;;10.32;9.30;;;20.20;99.90;;;;;;2090471;28;20032;-68
2021/07/04 03:54:08;;;;;;;9.43;8.70;;;20.30;99.90;;;;;;2090209;28;20105;-69
2021/07/04 03:55:11;;;;;;;10.95;9.85;;;20.20;99.90;;;;;;2090093;28;20473;-68
2021/07/04 03:56:12;;;;;;;10.88;9.93;;;20.20;99.90;;;;;;2097996;28;20028;-68
2021/07/04 03:57:21;;;;;;;11.23;10.32;;;20.20;99.90;;;;;;2095059;28;20543;-68
2021/07/04 03:58:22;;;;;;;10.80;9.52;;;20.20;99.90;;;;;;2082217;28;20029;-68
2021/07/04 03:59:22;;;;;;;11.35;10.35;;;20.20;99.90;;;;;;2096631;28;20086;-69
2021/07/04 04:00:23;;;;;;;13.25;9.50;;;20.20;99.90;;;;;;2098722;28;20063;-69
2021/07/04 04:01:24;;;;;;;11.23;10.20;;;20.20;99.90;;;;;;2098147;28;20024;-68
2021/07/04 04:02:25;;;;;;;13.23;11.82;;;20.30;99.90;;;;;;2098423;28;20024;-68
2021/07/04 04:03:25;;;;;;;11.98;10.75;;;20.30;99.90;;;;;;2098443;28;20020;-68
2021/07/04 04:04:26;;;;;;;11.23;10.18;;;20.30;99.90;;;;;;2098630;28;20031;-68
2021/07/04 04:05:26;;;;;;;10.35;9.38;;;20.30;99.90;;;;;;2097971;28;20036;-68
2021/07/04 04:06:27;;;;;;;11.70;9.90;;;20.30;99.90;;;;;;2097806;28;20473;-69
2021/07/04 04:07:29;;;;;;;12.20;11.05;;;20.30;99.90;;;;;;2098442;28;20020;-69
2021/07/04 04:08:29;;;;;;;11.65;10.05;;;20.30;99.90;;;;;;2098603;28;20020;-68
2021/07/04 04:09:30;;;;;;;10.75;9.82;;;20.30;99.90;;;;;;2098207;28;20117;-68
2021/07/04 04:10:30;;;;;;;10.43;9.32;;;20.30;99.90;;;;;;2098606;28;20503;-68
2021/07/04 04:11:31;;;;;;;10.95;9.85;;;20.30;99.90;;;;;;2097828;28;20028;-68
2021/07/04 04:12:32;;;;;;;12.15;11.05;;;20.30;99.90;;;;;;2098627;28;20468;-69
2021/07/04 04:13:32;;;;;;;12.50;10.10;;;20.30;99.90;;;;;;2098052;28;20039;-69
2021/07/04 04:14:33;;;;;;;10.32;9.00;;;20.20;99.90;;;;;;2098531;28;20113;-68
2021/07/04 04:15:33;;;;;;;11.85;10.65;;;20.20;99.90;;;;;;2097475;28;20025;-68
2021/07/04 04:16:34;;;;;;;10.80;9.75;;;20.30;99.90;;;;;;2090535;28;20484;-68
2021/07/04 04:17:35;;;;;;;11.10;9.93;;;20.20;99.90;;;;;;2090152;28;20021;-68
2021/07/04 04:18:38;;;;;;;12.77;10.00;;;20.20;99.90;;;;;;2090305;28;20121;-68
2021/07/04 04:19:39;;;;;;;9.95;8.98;;;20.20;99.90;;;;;;2090087;28;20100;-68
2021/07/04 04:20:40;;;;;;;12.13;11.02;;;20.30;99.90;;;;;;2090177;28;20719;-68
2021/07/04 04:21:41;;;;;;;12.57;11.35;;;20.20;99.90;;;;;;2089492;28;20025;-69
2021/07/04 04:22:41;;;;;;;11.80;10.77;;;20.30;99.90;;;;;;2090399;28;20078;-69
2021/07/04 04:23:42;;;;;;;11.35;10.20;;;20.20;99.90;;;;;;2089928;28;20715;-68
2021/07/04 04:24:42;;;;;;;13.00;11.25;;;20.20;99.90;;;;;;2089909;28;20534;-69
2021/07/04 04:25:43;;;;;;;12.32;11.00;;;20.20;99.90;;;;;;2089892;28;20027;-68
2021/07/04 04:26:43;;;;;;;13.27;11.93;;;20.20;99.90;;;;;;2090074;28;20396;-68
2021/07/04 04:27:44;;;;;;;12.65;11.35;;;20.20;99.90;;;;;;2097330;28;20089;-68
2021/07/04 04:28:44;;;;;;;13.98;11.57;;;20.20;99.90;;;;;;2097743;28;20032;-68
2021/07/04 04:29:45;;;;;;;12.60;11.25;;;20.30;99.90;;;;;;2090122;28;20025;-68
2021/07/04 04:30:45;;;;;;;11.32;10.32;;;20.20;99.90;;;;;;2090179;28;20028;-68
2021/07/04 04:31:47;;;;;;;12.35;11.25;;;20.20;99.90;;;;;;2089387;28;20477;-69
2021/07/04 04:32:47;;;;;;;12.07;11.02;;;20.20;99.90;;;;;;2090169;28;20074;-68
2021/07/04 04:33:48;;;;;;;15.15;11.55;;;20.20;99.90;;;;;;2089276;28;20025;-68
2021/07/04 04:34:48;;;;;;;12.98;11.77;;;20.20;99.90;;;;;;2089431;28;20372;-69
2021/07/04 04:35:49;;;;;;;12.63;11.40;;;20.20;99.90;;;;;;2090068;28;20025;-68
2021/07/04 04:36:49;;;;;;;11.52;10.43;;;20.20;99.90;;;;;;2089876;28;20479;-68
2021/07/04 04:37:50;;;;;;;9.75;8.95;;;20.20;99.90;;;;;;2089908;28;20373;-68
2021/07/04 04:38:51;;;;;;;10.80;9.88;;;20.20;99.90;;;;;;2089972;28;20052;-68
2021/07/04 04:39:52;;;;;;;11.13;10.10;;;20.20;99.90;;;;;;2089702;28;20032;-68
2021/07/04 04:40:52;;;;;;;10.48;9.40;;;20.20;99.90;;;;;;2089802;28;20047;-68
2021/07/04 04:41:53;;;;;;;9.63;8.68;;;20.20;99.90;;;;;;2089597;28;20443;-68
2021/07/04 04:42:54;;;;;;;11.55;10.35;;;20.20;99.90;;;;;;2089708;28;20025;-68
2021/07/04 04:43:55;;;;;;;11.20;10.20;;;20.20;99.90;;;;;;2090071;28;20095;-69
2021/07/04 04:44:55;;;;;;;12.02;11.02;;;20.30;99.90;;;;;;2089881;28;20033;-69
2021/07/04 04:45:56;;;;;;;11.65;10.63;;;20.20;99.90;;;;;;2089678;28;20035;-69
2021/07/04 04:46:56;;;;;;;14.57;10.77;;;20.30;99.90;;;;;;2096686;28;20025;-68
2021/07/04 04:47:57;;;;;;;12.60;11.40;;;20.30;99.90;;;;;;2097352;28;20024;-69
2021/07/04 04:48:58;;;;;;;12.25;11.15;;;20.30;99.90;;;;;;2089838;28;20029;-69
2021/07/04 04:49:58;;;;;;;12.45;11.15;;;20.30;99.90;;;;;;2090103;28;20104;-68
2021/07/04 04:50:59;;;;;;;11.82;10.73;;;20.30;99.90;;;;;;2089644;28;20380;-69
2021/07/04 04:51:59;;;;;;;13.15;11.93;;;20.30;99.90;;;;;;2089442;28;20089;-69
2021/07/04 04:53:00;;;;;;;13.90;12.63;;;20.30;99.90;;;;;;2089891;28;20380;-69
2021/07/04 04:54:00;;;;;;;12.13;10.93;;;20.30;99.90;;;;;;2089922;28;20029;-69
2021/07/04 04:55:05;;;;;;;12.73;11.52;;;20.30;99.90;;;;;;2089752;28;20028;-68
2021/07/04 04:56:06;;;;;;;13.00;11.75;;;20.30;99.90;;;;;;2089709;28;20781;-68
2021/07/04 04:57:06;;;;;;;12.82;11.63;;;20.30;99.90;;;;;;2089772;28;20477;-68
2021/07/04 04:58:07;;;;;;;11.52;10.40;;;20.30;99.90;;;;;;2089849;28;20357;-68
2021/07/04 04:59:07;;;;;;;11.60;10.40;;;20.30;99.90;;;;;;2089769;28;20032;-68
2021/07/04 05:00:11;;;;;;;15.02;11.82;;;20.40;99.90;;;;;;2089947;28;20036;-68
2021/07/04 05:01:12;;;;;;;12.70;11.40;;;20.40;99.90;;;;;;2089667;28;20049;-68
2021/07/04 05:02:13;;;;;;;13.93;11.20;;;20.40;99.90;;;;;;2089242;28;20079;-68
2021/07/04 05:03:13;;;;;;;18.50;12.40;;;20.40;99.90;;;;;;2089598;28;20017;-68
2021/07/04 05:04:14;;;;;;;12.75;11.50;;;20.40;99.90;;;;;;2089877;28;20113;-68
2021/07/04 05:05:14;;;;;;;12.95;11.85;;;20.40;99.90;;;;;;2088830;28;20028;-68
2021/07/04 05:06:15;;;;;;;13.05;11.85;;;20.50;99.90;;;;;;2088899;28;20100;-68
2021/07/04 05:07:16;;;;;;;13.82;12.52;;;20.40;99.90;;;;;;2089586;28;20091;-69
2021/07/04 05:08:17;;;;;;;13.68;12.30;;;20.50;99.90;;;;;;2089868;28;20035;-68
2021/07/04 05:09:17;;;;;;;12.73;11.50;;;20.50;99.90;;;;;;2089725;28;20025;-68
2021/07/04 05:10:18;;;;;;;12.80;11.70;;;20.50;99.90;;;;;;2089799;28;20025;-68
2021/07/04 05:11:18;;;;;;;13.00;11.80;;;20.50;99.90;;;;;;2089757;28;20025;-68
2021/07/04 05:12:19;;;;;;;13.45;12.18;;;20.50;99.90;;;;;;2089106;28;20402;-68
2021/07/04 05:13:19;;;;;;;12.98;11.85;;;20.50;99.90;;;;;;2089836;28;20067;-68
2021/07/04 05:14:20;;;;;;;13.50;12.10;;;20.60;99.90;;;;;;2089793;28;20044;-68
2021/07/04 05:15:21;;;;;;;14.02;12.07;;;20.50;99.90;;;;;;2089782;28;20021;-68